Anchorage, AK (99515)

3:56 AM AKDT on July 24, 2016 (GMT -0800)
Bonnie Cusack | | Change Station

Elev 170 ft 61.12 °N, 149.92 °W | Updated 6 seconds ago

Overcast
Overcast
61.9 °F
Feels Like 61.9 °F
N
1.1
Wind Variable Wind from SE
Gusts 2.5 mph

Today
High -- | Low -- °F
--% Chance of Precip.
Yesterday
High -- | Low -- °F
Precip. -- in
Pressure 29.61 in
Visibility 10.0 miles
Clouds Few 7000 ft
Overcast 10000 ft
Dew Point 52 °F
Humidity 70%
Rainfall 0.00 in
Snow Depth Not available.
5:14 AM 10:56 PM
Waning Gibbous, 77% visible
METAR PALH 241153Z 23005KT 10SM FEW070 OVC100 16/08 A2961 RMK AO2 SLP027 60000 T01560083 10200 20156 51002
Pressure 29.61 in
Visibility 10.0 miles
Clouds Few 7000 ft
Overcast 10000 ft
Dew Point 52 °F
Humidity 70%
Rainfall 0.00 in
Snow Depth Not available.
5:14 AM 10:56 PM
Waning Gibbous, 77% visible
METAR PALH 241153Z 23005KT 10SM FEW070 OVC100 16/08 A2961 RMK AO2 SLP027 60000 T01560083 10200 20156 51002

10-Day Weather Forecast

Almanac

Astronomy

Jul. 24, 2016 Rise Set
Actual Time
Civil Twilight
Nautical Twilight
Astronomical Twilight
Moon
Length of Visible Light
Length of Day
Tomorrow will be .
, % of the Moon is Illuminated

Today's Extremes

State Highs State Lows

Community

WunderPhotos

Upload Photos

1,927,049 photos uploaded!

WunderBlog® & News

Nearby

Air Quality

  Air Quality AQ Index Pollutant
Not available.

Snow Depth

Station Depth Elevation

Earthquake Activity

City Distance Mag. Time & Date
Minimum magnitude displayed is 2.5.

Coastal Water Temperatures

Place Temperature

Stations

Nearby Weather Stations

Station Location Temp. Windchill Dew Point Humidity Wind Precip. Elev Updated Type
                   

Watches & Warnings

There are currently no watches in effect.